Time;durP1;ratioP1;P1;durP2;ratioP2;P2;SDS_P1;SDS_P2;PMS_P1;PMS_P2;Temp;Humidity;BMP_temperature;BMP_pressure;BME280_temperature;BME280_humidity;BME280_pressure;Samples;Min_cycle;Max_cycle;Signal;HPM_P1;HPM_P2
2023/08/24 00:02:01;;;;;;;10.70;7.95;;;;;;;;;;5029372;28;20400;-69
2023/08/24 00:04:28;;;;;;;10.40;8.45;;;;;;;;;;5030225;28;20205;-69
2023/08/24 00:06:53;;;;;;;11.50;8.52;;;;;;;;;;5035228;28;20383;-69
2023/08/24 00:09:19;;;;;;;11.95;9.13;;;;;;;;;;5025915;28;20215;-70
2023/08/24 00:11:45;;;;;;;12.30;7.80;;;;;;;;;;5029217;28;20185;-70
2023/08/24 00:14:10;;;;;;;12.35;8.60;;;;;;;;;;5012237;28;20191;-70
2023/08/24 00:16:36;;;;;;;12.25;9.27;;;;;;;;;;5029036;28;20214;-70
2023/08/24 00:19:01;;;;;;;13.52;9.70;;;;;;;;;;5031127;28;20220;-70
2023/08/24 00:21:27;;;;;;;14.27;8.95;;;;;;;;;;5033119;28;20218;-70
2023/08/24 00:23:52;;;;;;;13.38;8.82;;;;;;;;;;5034291;28;20630;-69
2023/08/24 00:26:18;;;;;;;12.80;8.45;;;;;;;;;;5033848;28;20224;-70
2023/08/24 00:28:43;;;;;;;12.15;7.90;;;;;;;;;;5018506;28;20693;-70
2023/08/24 00:31:09;;;;;;;13.85;8.93;;;;;;;;;;5034023;28;20327;-70
2023/08/24 00:33:34;;;;;;;14.32;9.05;;;;;;;;;;5030527;28;20618;-70
2023/08/24 00:36:01;;;;;;;13.32;8.98;;;;;;;;;;5033358;28;20221;-69
2023/08/24 00:38:26;;;;;;;14.48;9.23;;;;;;;;;;5032860;28;20643;-69
2023/08/24 00:40:53;;;;;;;15.15;9.65;;;;;;;;;;5013369;28;20274;-69
2023/08/24 00:43:23;;;;;;;11.68;9.40;;;;;;;;;;5025291;28;20295;-69
2023/08/24 00:45:50;;;;;;;10.57;9.48;;;;;;;;;;5021152;28;20194;-69
2023/08/24 00:48:16;;;;;;;12.52;9.63;;;;;;;;;;5031865;28;20181;-69
2023/08/24 00:50:41;;;;;;;14.27;10.90;;;;;;;;;;5019585;28;20513;-69
2023/08/24 00:53:07;;;;;;;12.57;10.38;;;;;;;;;;5031987;28;20194;-69
2023/08/24 00:55:33;;;;;;;12.95;9.75;;;;;;;;;;5030543;28;20197;-69
2023/08/24 00:57:58;;;;;;;12.20;9.98;;;;;;;;;;5031780;28;20236;-70
2023/08/24 01:00:24;;;;;;;12.80;10.40;;;;;;;;;;5022298;28;20534;-69
2023/08/24 01:02:49;;;;;;;15.05;10.05;;;;;;;;;;5031047;28;20186;-69
2023/08/24 01:05:15;;;;;;;17.00;10.57;;;;;;;;;;5023516;28;20222;-69
2023/08/24 01:07:40;;;;;;;15.50;10.55;;;;;;;;;;5029187;28;20194;-69
2023/08/24 01:10:07;;;;;;;16.20;10.52;;;;;;;;;;5036064;28;20264;-70
2023/08/24 01:12:56;;;;;;;18.45;10.90;;;;;;;;;;5038483;28;20213;-70
2023/08/24 01:15:55;;;;;;;14.50;11.10;;;;;;;;;;5022000;28;20236;-69
2023/08/24 01:18:23;;;;;;;13.70;10.32;;;;;;;;;;5031733;28;20746;-69
2023/08/24 01:20:49;;;;;;;16.63;12.23;;;;;;;;;;5032447;28;20608;-69
2023/08/24 01:23:42;;;;;;;16.05;11.55;;;;;;;;;;5032213;28;20185;-69
2023/08/24 01:26:16;;;;;;;14.18;11.63;;;;;;;;;;5028473;28;20201;-69
2023/08/24 01:28:43;;;;;;;13.50;10.68;;;;;;;;;;5010946;28;20178;-70
2023/08/24 01:31:09;;;;;;;17.65;11.52;;;;;;;;;;5024600;28;20530;-69
2023/08/24 01:33:34;;;;;;;14.18;11.20;;;;;;;;;;5032527;28;20186;-69
2023/08/24 01:36:00;;;;;;;12.10;10.20;;;;;;;;;;5030165;28;20618;-69
2023/08/24 01:38:27;;;;;;;16.30;10.75;;;;;;;;;;5032647;28;20271;-70
2023/08/24 01:41:08;;;;;;;12.63;9.63;;;;;;;;;;5027619;28;20626;-69
2023/08/24 01:43:36;;;;;;;13.18;9.50;;;;;;;;;;5031412;28;20902;-69
2023/08/24 01:46:05;;;;;;;12.75;9.88;;;;;;;;;;5028632;28;20194;-69
2023/08/24 01:48:31;;;;;;;13.35;9.75;;;;;;;;;;5032269;28;20182;-69
2023/08/24 01:50:58;;;;;;;14.77;9.75;;;;;;;;;;5026981;28;20194;-69
2023/08/24 01:53:25;;;;;;;14.00;10.27;;;;;;;;;;5028939;28;20328;-69
2023/08/24 01:55:50;;;;;;;14.10;9.93;;;;;;;;;;5031290;28;20328;-69
2023/08/24 01:58:16;;;;;;;12.18;9.18;;;;;;;;;;5032097;28;20725;-69
2023/08/24 02:00:41;;;;;;;10.93;9.77;;;;;;;;;;5024198;28;20559;-70
2023/08/24 02:03:07;;;;;;;12.68;9.73;;;;;;;;;;5032310;28;20637;-70
2023/08/24 02:05:32;;;;;;;11.48;9.35;;;;;;;;;;5024926;28;20277;-70
2023/08/24 02:07:59;;;;;;;11.93;9.95;;;;;;;;;;5035521;28;20293;-69
2023/08/24 02:10:24;;;;;;;14.38;9.77;;;;;;;;;;5031956;28;20200;-69
2023/08/24 02:12:50;;;;;;;15.68;10.02;;;;;;;;;;5031915;28;20288;-69
2023/08/24 02:15:15;;;;;;;12.00;9.85;;;;;;;;;;5026583;28;20517;-69
2023/08/24 02:17:41;;;;;;;11.57;10.15;;;;;;;;;;5029538;28;20210;-69
2023/08/24 02:20:08;;;;;;;15.90;10.40;;;;;;;;;;5025111;28;20214;-68
2023/08/24 02:22:34;;;;;;;15.68;10.85;;;;;;;;;;5026495;28;20193;-69
2023/08/24 02:25:01;;;;;;;23.13;11.13;;;;;;;;;;5031565;28;20190;-69
2023/08/24 02:27:26;;;;;;;13.63;9.73;;;;;;;;;;5031697;28;20213;-69
2023/08/24 02:29:51;;;;;;;14.52;10.25;;;;;;;;;;5023805;28;20233;-69
2023/08/24 02:32:17;;;;;;;13.68;9.30;;;;;;;;;;5040354;28;20301;-69
2023/08/24 02:34:42;;;;;;;12.40;9.32;;;;;;;;;;5029005;28;20257;-70
2023/08/24 02:37:08;;;;;;;13.50;10.38;;;;;;;;;;5019514;28;20193;-69
2023/08/24 02:39:33;;;;;;;15.05;10.70;;;;;;;;;;5031164;28;20206;-69
2023/08/24 02:41:58;;;;;;;16.95;10.57;;;;;;;;;;5016107;28;20528;-69
2023/08/24 02:44:24;;;;;;;13.77;9.93;;;;;;;;;;5030752;28;20356;-69
2023/08/24 02:46:49;;;;;;;12.05;9.73;;;;;;;;;;5018406;28;20201;-69
2023/08/24 02:49:14;;;;;;;12.73;9.25;;;;;;;;;;5031228;28;20339;-69
2023/08/24 02:51:40;;;;;;;12.40;9.48;;;;;;;;;;5029099;28;20190;-69
2023/08/24 02:54:06;;;;;;;16.33;10.27;;;;;;;;;;5030718;28;20220;-69
2023/08/24 02:56:31;;;;;;;11.30;9.80;;;;;;;;;;5026501;28;20530;-69
2023/08/24 02:58:57;;;;;;;12.85;10.77;;;;;;;;;;5031132;28;20321;-70
2023/08/24 03:01:22;;;;;;;13.30;10.18;;;;;;;;;;5029583;28;20561;-69
2023/08/24 03:03:48;;;;;;;16.05;10.38;;;;;;;;;;5030174;28;20193;-69
2023/08/24 03:06:13;;;;;;;13.45;10.30;;;;;;;;;;5028000;28;20595;-70
2023/08/24 03:08:38;;;;;;;13.13;10.23;;;;;;;;;;5030700;28;20196;-70
2023/08/24 03:11:04;;;;;;;11.65;10.45;;;;;;;;;;5021608;28;20199;-70
2023/08/24 03:13:30;;;;;;;15.35;11.05;;;;;;;;;;5030849;28;20186;-70
2023/08/24 03:15:56;;;;;;;17.65;12.40;;;;;;;;;;5028738;28;20197;-69
2023/08/24 03:18:21;;;;;;;13.30;10.85;;;;;;;;;;5019986;28;20217;-69
2023/08/24 03:20:49;;;;;;;12.93;11.05;;;;;;;;;;5030214;28;20182;-70
2023/08/24 03:23:17;;;;;;;15.48;11.48;;;;;;;;;;5028258;28;20182;-69
2023/08/24 03:25:43;;;;;;;12.70;10.98;;;;;;;;;;5030757;28;20326;-69
2023/08/24 03:28:09;;;;;;;14.98;11.98;;;;;;;;;;5030063;28;20277;-69
2023/08/24 03:30:36;;;;;;;12.73;11.45;;;;;;;;;;5016595;28;20187;-69
2023/08/24 03:33:02;;;;;;;16.73;12.05;;;;;;;;;;5024837;28;20185;-69
2023/08/24 03:35:29;;;;;;;13.98;11.45;;;;;;;;;;5029465;28;20263;-69
2023/08/24 03:37:55;;;;;;;16.15;12.88;;;;;;;;;;5026450;28;20206;-69
2023/08/24 03:40:20;;;;;;;17.52;12.52;;;;;;;;;;5028024;28;20696;-69
2023/08/24 03:42:45;;;;;;;18.88;12.07;;;;;;;;;;5030962;28;20239;-69
2023/08/24 03:45:11;;;;;;;16.08;11.73;;;;;;;;;;5029333;28;20234;-70
2023/08/24 03:47:36;;;;;;;15.93;11.82;;;;;;;;;;5029112;28;20653;-69
2023/08/24 03:50:02;;;;;;;13.57;11.23;;;;;;;;;;5030151;28;20198;-69
2023/08/24 03:52:27;;;;;;;17.75;12.27;;;;;;;;;;5029289;28;20182;-70
2023/08/24 03:54:52;;;;;;;14.25;11.73;;;;;;;;;;5034969;28;20202;-70
2023/08/24 03:57:18;;;;;;;15.52;11.60;;;;;;;;;;5016670;28;20195;-70
2023/08/24 03:59:43;;;;;;;17.13;11.40;;;;;;;;;;5028106;28;20221;-69
2023/08/24 04:02:08;;;;;;;18.15;12.70;;;;;;;;;;5033757;28;20630;-69
2023/08/24 04:04:34;;;;;;;17.60;12.18;;;;;;;;;;5034987;28;20198;-70
2023/08/24 04:07:00;;;;;;;16.73;13.10;;;;;;;;;;5034583;28;20194;-70
2023/08/24 04:09:25;;;;;;;16.45;12.63;;;;;;;;;;5031886;28;20182;-71
2023/08/24 04:11:50;;;;;;;14.77;12.20;;;;;;;;;;5026752;28;20183;-69
2023/08/24 04:14:16;;;;;;;15.20;12.00;;;;;;;;;;5020708;28;20198;-70
2023/08/24 04:16:41;;;;;;;17.10;13.05;;;;;;;;;;5032986;28;20221;-70
2023/08/24 04:19:08;;;;;;;17.30;11.93;;;;;;;;;;5034190;28;20293;-69
2023/08/24 04:21:33;;;;;;;14.80;12.00;;;;;;;;;;5025182;28;20190;-69
2023/08/24 04:23:59;;;;;;;19.38;11.70;;;;;;;;;;5032349;28;20204;-69
2023/08/24 04:26:24;;;;;;;15.48;11.95;;;;;;;;;;5026397;28;20195;-69
2023/08/24 04:28:50;;;;;;;16.80;12.13;;;;;;;;;;5031100;28;20244;-69
2023/08/24 04:31:15;;;;;;;14.90;11.15;;;;;;;;;;5032416;28;20565;-69
2023/08/24 04:33:41;;;;;;;16.38;11.48;;;;;;;;;;5033226;28;20174;-69
2023/08/24 04:36:06;;;;;;;15.30;12.00;;;;;;;;;;5033501;28;20201;-69
2023/08/24 04:38:32;;;;;;;14.23;11.30;;;;;;;;;;5022427;28;20210;-69
2023/08/24 04:40:57;;;;;;;15.25;11.90;;;;;;;;;;5031962;28;20221;-69
2023/08/24 04:43:24;;;;;;;19.30;13.32;;;;;;;;;;5032990;28;20746;-69
2023/08/24 04:45:52;;;;;;;16.50;11.98;;;;;;;;;;5031114;28;20220;-70
2023/08/24 04:48:18;;;;;;;16.52;11.95;;;;;;;;;;5022341;28;20199;-69
2023/08/24 04:50:44;;;;;;;16.38;11.48;;;;;;;;;;5019702;28;20521;-69
2023/08/24 04:53:10;;;;;;;17.50;11.95;;;;;;;;;;5031824;28;20209;-69
2023/08/24 04:55:36;;;;;;;16.20;11.52;;;;;;;;;;5036618;28;20193;-69
2023/08/24 04:58:01;;;;;;;15.23;12.13;;;;;;;;;;5023785;28;20194;-69
2023/08/24 05:00:26;;;;;;;15.13;12.20;;;;;;;;;;5033231;28;20259;-69
2023/08/24 05:02:52;;;;;;;13.90;10.90;;;;;;;;;;5031070;28;20549;-68
2023/08/24 05:05:17;;;;;;;16.90;12.73;;;;;;;;;;5031443;28;20194;-69
2023/08/24 05:07:43;;;;;;;16.67;13.35;;;;;;;;;;5032268;28;20612;-68
2023/08/24 05:10:08;;;;;;;14.48;11.57;;;;;;;;;;5031297;28;20186;-69
2023/08/24 05:12:35;;;;;;;14.05;12.00;;;;;;;;;;5032979;28;20192;-69
2023/08/24 05:15:04;;;;;;;18.83;11.73;;;;;;;;;;5019297;28;20244;-69
2023/08/24 05:17:31;;;;;;;19.58;12.10;;;;;;;;;;5033288;28;20241;-69
2023/08/24 05:19:57;;;;;;;13.98;11.18;;;;;;;;;;5033233;28;20554;-69
2023/08/24 05:22:22;;;;;;;13.88;11.80;;;;;;;;;;5032159;28;20300;-69
2023/08/24 05:24:47;;;;;;;17.75;11.98;;;;;;;;;;5031208;28;20186;-69
2023/08/24 05:27:13;;;;;;;14.60;11.82;;;;;;;;;;5029633;28;20200;-69
2023/08/24 05:29:38;;;;;;;16.00;11.32;;;;;;;;;;5031482;28;20214;-68
2023/08/24 05:32:04;;;;;;;16.92;12.60;;;;;;;;;;5037615;28;20712;-68
2023/08/24 05:34:29;;;;;;;15.23;12.32;;;;;;;;;;5030349;28;20571;-69
2023/08/24 05:36:55;;;;;;;17.02;12.23;;;;;;;;;;5025682;28;20204;-69
2023/08/24 05:39:20;;;;;;;15.07;11.43;;;;;;;;;;5031726;28;20259;-70
2023/08/24 05:41:45;;;;;;;18.15;11.15;;;;;;;;;;5025683;28;20328;-69
2023/08/24 05:44:11;;;;;;;17.50;12.15;;;;;;;;;;5024487;28;20349;-70
2023/08/24 05:46:36;;;;;;;18.98;13.00;;;;;;;;;;5025789;28;20304;-69
2023/08/24 05:49:02;;;;;;;16.42;12.02;;;;;;;;;;5030899;28;20644;-69
2023/08/24 05:51:27;;;;;;;15.07;11.93;;;;;;;;;;5022853;28;20197;-69
2023/08/24 05:53:55;;;;;;;16.95;12.23;;;;;;;;;;5030212;28;20604;-69
2023/08/24 05:56:22;;;;;;;16.25;12.27;;;;;;;;;;5028565;28;20612;-69
2023/08/24 05:58:47;;;;;;;17.55;12.30;;;;;;;;;;5027977;28;20206;-69
2023/08/24 06:01:12;;;;;;;19.75;13.20;;;;;;;;;;5032141;28;20712;-69
2023/08/24 06:03:38;;;;;;;16.00;11.88;;;;;;;;;;5031830;28;20198;-69
2023/08/24 06:06:04;;;;;;;15.93;13.38;;;;;;;;;;5025126;28;20203;-69
2023/08/24 06:08:30;;;;;;;18.85;12.95;;;;;;;;;;5026366;28;20202;-70
2023/08/24 06:10:56;;;;;;;19.88;13.52;;;;;;;;;;5032040;28;20280;-69
2023/08/24 06:13:21;;;;;;;16.88;12.93;;;;;;;;;;5030844;28;20182;-69
2023/08/24 06:15:46;;;;;;;21.73;13.30;;;;;;;;;;5032121;28;20232;-69
2023/08/24 06:18:12;;;;;;;17.98;13.15;;;;;;;;;;5019096;28;20292;-69
2023/08/24 06:20:37;;;;;;;20.88;13.48;;;;;;;;;;5030878;28;20194;-69
2023/08/24 06:23:03;;;;;;;21.15;14.43;;;;;;;;;;5021562;28;20194;-69
2023/08/24 06:25:28;;;;;;;21.25;13.73;;;;;;;;;;5031484;28;20198;-69
2023/08/24 06:27:53;;;;;;;18.45;14.25;;;;;;;;;;5031713;28;20254;-70
2023/08/24 06:30:19;;;;;;;17.58;13.65;;;;;;;;;;5037329;28;20204;-69
2023/08/24 06:32:44;;;;;;;17.83;13.90;;;;;;;;;;5038366;28;20542;-69
2023/08/24 06:35:14;;;;;;;19.60;14.23;;;;;;;;;;5029228;28;20610;-69
2023/08/24 06:37:40;;;;;;;23.67;14.48;;;;;;;;;;5030826;28;20285;-70
2023/08/24 06:40:05;;;;;;;20.67;14.05;;;;;;;;;;5030553;28;20736;-70
2023/08/24 06:42:31;;;;;;;18.23;14.55;;;;;;;;;;5029995;28;20201;-70
2023/08/24 06:44:56;;;;;;;21.38;13.65;;;;;;;;;;5031727;28;20692;-69
2023/08/24 06:47:22;;;;;;;18.95;13.00;;;;;;;;;;5034317;28;20197;-69
2023/08/24 06:49:47;;;;;;;16.00;12.77;;;;;;;;;;5039110;28;20186;-69
2023/08/24 06:52:13;;;;;;;15.27;12.45;;;;;;;;;;5027860;28;20630;-71
2023/08/24 06:54:39;;;;;;;16.10;12.30;;;;;;;;;;5030008;28;20247;-70
2023/08/24 06:57:04;;;;;;;16.83;12.13;;;;;;;;;;5026031;28;20248;-69
2023/08/24 06:59:30;;;;;;;12.82;8.07;;;;;;;;;;5030451;28;20691;-69
2023/08/24 07:01:55;;;;;;;10.57;7.53;;;;;;;;;;5025693;28;20274;-69
2023/08/24 07:04:21;;;;;;;11.68;6.63;;;;;;;;;;5020484;28;20257;-70
2023/08/24 07:06:46;;;;;;;16.00;7.78;;;;;;;;;;5030181;28;20201;-69
2023/08/24 07:09:11;;;;;;;14.27;8.52;;;;;;;;;;5029801;28;20219;-69
2023/08/24 07:11:37;;;;;;;15.57;7.80;;;;;;;;;;5028472;28;20645;-70
2023/08/24 07:14:02;;;;;;;10.68;7.72;;;;;;;;;;5023359;28;20190;-70
2023/08/24 07:16:28;;;;;;;15.10;8.35;;;;;;;;;;5030559;28;20186;-69
2023/08/24 07:18:53;;;;;;;18.20;10.35;;;;;;;;;;5029430;28;20210;-69
2023/08/24 07:21:18;;;;;;;15.10;12.18;;;;;;;;;;5030741;28;20292;-69
2023/08/24 07:23:44;;;;;;;16.25;12.68;;;;;;;;;;5019363;28;20222;-70
2023/08/24 07:26:10;;;;;;;17.10;13.07;;;;;;;;;;5030656;28;20226;-70
2023/08/24 07:28:35;;;;;;;17.92;12.43;;;;;;;;;;5029781;28;20232;-70
2023/08/24 07:31:11;;;;;;;17.40;11.68;;;;;;;;;;5041385;28;20184;-70
2023/08/24 07:33:40;;;;;;;18.75;12.02;;;;;;;;;;5014203;28;20550;-69
2023/08/24 07:36:06;;;;;;;20.10;11.82;;;;;;;;;;5021799;28;20197;-70
2023/08/24 07:38:31;;;;;;;14.98;12.13;;;;;;;;;;5018871;28;20206;-69
2023/08/24 07:40:58;;;;;;;15.57;12.70;;;;;;;;;;5030798;28;20261;-69
2023/08/24 07:43:24;;;;;;;12.00;9.48;;;;;;;;;;5016259;28;20718;-69
2023/08/24 07:45:49;;;;;;;14.95;12.10;;;;;;;;;;5043316;28;20193;-69
2023/08/24 07:48:15;;;;;;;14.95;11.68;;;;;;;;;;5016716;28;20497;-69
2023/08/24 07:50:40;;;;;;;17.45;12.20;;;;;;;;;;5029742;28;20729;-69
2023/08/24 07:53:06;;;;;;;15.70;12.52;;;;;;;;;;5026123;28;20661;-69
2023/08/24 07:55:31;;;;;;;19.20;12.75;;;;;;;;;;5030350;28;20213;-70
2023/08/24 07:57:56;;;;;;;15.05;11.95;;;;;;;;;;5019453;28;20201;-69
2023/08/24 08:00:24;;;;;;;16.02;11.70;;;;;;;;;;5025485;28;20208;-70
2023/08/24 08:02:50;;;;;;;17.63;12.07;;;;;;;;;;5029656;28;20198;-69
2023/08/24 08:05:16;;;;;;;14.98;12.43;;;;;;;;;;5030957;28;20186;-69
2023/08/24 08:07:42;;;;;;;15.27;13.13;;;;;;;;;;5029971;28;20190;-69
2023/08/24 08:10:08;;;;;;;15.82;12.25;;;;;;;;;;5031016;28;20197;-70
2023/08/24 08:12:34;;;;;;;18.70;12.93;;;;;;;;;;5025031;28;20557;-70
2023/08/24 08:14:59;;;;;;;20.50;12.52;;;;;;;;;;5030245;28;20213;-68
2023/08/24 08:17:25;;;;;;;16.88;13.63;;;;;;;;;;5029903;28;20222;-69
2023/08/24 08:19:55;;;;;;;14.20;12.15;;;;;;;;;;5028296;28;20202;-69
2023/08/24 08:22:20;;;;;;;16.02;12.40;;;;;;;;;;5022375;28;20293;-69
2023/08/24 08:24:46;;;;;;;20.63;13.05;;;;;;;;;;5026562;28;20280;-70
2023/08/24 08:27:11;;;;;;;14.55;12.32;;;;;;;;;;5030080;28;20269;-68
2023/08/24 08:29:37;;;;;;;16.15;11.93;;;;;;;;;;5017708;28;20202;-69
2023/08/24 08:32:02;;;;;;;14.70;12.05;;;;;;;;;;5041006;28;20662;-69
2023/08/24 08:34:27;;;;;;;15.38;11.95;;;;;;;;;;5028545;28;20205;-70
2023/08/24 08:36:53;;;;;;;15.15;11.80;;;;;;;;;;5029643;28;20190;-69
2023/08/24 08:39:18;;;;;;;17.75;11.88;;;;;;;;;;5029055;28;20226;-69
2023/08/24 08:41:45;;;;;;;12.00;10.80;;;;;;;;;;5033412;28;20198;-69
2023/08/24 08:44:13;;;;;;;15.57;11.60;;;;;;;;;;5032215;28;20632;-69
2023/08/24 08:46:41;;;;;;;16.33;11.68;;;;;;;;;;5033335;28;20209;-69
2023/08/24 08:49:07;;;;;;;16.38;11.20;;;;;;;;;;5032900;28;20614;-68
2023/08/24 08:51:35;;;;;;;14.13;10.27;;;;;;;;;;5020708;28;20637;-68
2023/08/24 08:54:01;;;;;;;15.02;10.70;;;;;;;;;;5017346;28;20542;-68
2023/08/24 08:56:26;;;;;;;15.88;10.23;;;;;;;;;;5025294;28;20209;-69
2023/08/24 08:58:55;;;;;;;12.55;9.80;;;;;;;;;;5021098;28;20210;-68
2023/08/24 09:01:22;;;;;;;10.60;9.50;;;;;;;;;;5033212;28;20198;-68
2023/08/24 09:03:48;;;;;;;12.48;8.93;;;;;;;;;;5030001;28;20214;-68
2023/08/24 09:06:14;;;;;;;11.25;8.38;;;;;;;;;;5034077;28;20637;-69
2023/08/24 09:08:39;;;;;;;13.00;8.73;;;;;;;;;;5030600;28;20273;-69
2023/08/24 09:11:08;;;;;;;10.80;9.68;;;;;;;;;;5033170;28;20194;-69
2023/08/24 09:13:33;;;;;;;10.90;8.95;;;;;;;;;;5030486;28;20236;-69
2023/08/24 09:16:08;;;;;;;13.32;9.38;;;;;;;;;;5034474;28;20553;-69
2023/08/24 09:18:38;;;;;;;12.60;8.75;;;;;;;;;;5021337;28;20249;-69
2023/08/24 09:21:12;;;;;;;10.88;8.50;;;;;;;;;;5032401;28;20193;-69
2023/08/24 09:23:43;;;;;;;13.73;8.93;;;;;;;;;;5026196;28;20216;-69
2023/08/24 09:26:09;;;;;;;13.57;8.70;;;;;;;;;;5032374;28;20186;-68
2023/08/24 09:28:36;;;;;;;10.13;8.98;;;;;;;;;;5028554;28;20187;-69
2023/08/24 09:31:02;;;;;;;11.85;8.50;;;;;;;;;;5039280;28;20208;-69
2023/08/24 09:33:28;;;;;;;13.70;8.32;;;;;;;;;;5029374;28;20186;-69
2023/08/24 09:36:01;;;;;;;11.20;7.65;;;;;;;;;;5033999;28;20266;-69
2023/08/24 09:38:27;;;;;;;13.63;8.40;;;;;;;;;;5034388;28;20194;-69
2023/08/24 09:40:54;;;;;;;12.32;7.90;;;;;;;;;;5032750;28;20214;-70
2023/08/24 09:43:20;;;;;;;14.52;8.70;;;;;;;;;;5031779;28;20229;-69
2023/08/24 09:45:54;;;;;;;10.35;8.10;;;;;;;;;;5032781;28;20194;-69
2023/08/24 09:48:21;;;;;;;9.73;7.20;;;;;;;;;;5030333;28;20275;-69
2023/08/24 09:50:48;;;;;;;10.57;7.63;;;;;;;;;;5027766;28;20317;-69
2023/08/24 09:53:22;;;;;;;12.68;7.57;;;;;;;;;;5024797;28;20267;-69
2023/08/24 09:56:00;;;;;;;11.32;8.00;;;;;;;;;;5031760;28;20184;-69
2023/08/24 09:58:27;;;;;;;10.55;7.57;;;;;;;;;;5023946;28;20622;-69
2023/08/24 10:00:54;;;;;;;9.40;8.07;;;;;;;;;;5031850;28;20190;-70
2023/08/24 10:03:27;;;;;;;9.65;7.40;;;;;;;;;;5027137;28;20199;-69
2023/08/24 10:05:54;;;;;;;12.65;8.57;;;;;;;;;;5018856;28;20238;-69
2023/08/24 10:08:27;;;;;;;15.55;8.38;;;;;;;;;;5030332;28;20281;-69
2023/08/24 10:10:55;;;;;;;15.27;9.65;;;;;;;;;;5031958;28;20308;-69
2023/08/24 10:13:36;;;;;;;13.80;9.82;;;;;;;;;;5024329;28;20253;-70
2023/08/24 10:16:04;;;;;;;12.95;9.80;;;;;;;;;;5027938;28;20267;-70
2023/08/24 10:18:30;;;;;;;12.00;8.88;;;;;;;;;;5031355;28;20214;-69
2023/08/24 10:20:56;;;;;;;12.85;8.32;;;;;;;;;;5013255;28;20644;-68
2023/08/24 10:23:23;;;;;;;8.63;6.88;;;;;;;;;;5028349;28;20193;-69
2023/08/24 10:25:51;;;;;;;9.15;7.72;;;;;;;;;;5030232;28;20240;-69
2023/08/24 10:28:18;;;;;;;10.02;7.80;;;;;;;;;;5029872;28;20252;-69
2023/08/24 10:30:45;;;;;;;11.38;7.75;;;;;;;;;;5029009;28;20243;-69
2023/08/24 10:33:13;;;;;;;11.60;8.10;;;;;;;;;;5039738;28;20195;-69
2023/08/24 10:35:40;;;;;;;16.25;8.40;;;;;;;;;;5031037;28;20645;-70
2023/08/24 10:38:05;;;;;;;12.02;8.18;;;;;;;;;;5029340;28;20178;-69
2023/08/24 10:40:43;;;;;;;10.35;7.55;;;;;;;;;;5017833;28;20209;-69
2023/08/24 10:43:09;;;;;;;11.23;5.93;;;;;;;;;;5030114;28;20194;-69
2023/08/24 10:45:53;;;;;;;7.75;5.70;;;;;;;;;;5029373;28;20239;-70
2023/08/24 10:48:19;;;;;;;7.07;6.40;;;;;;;;;;5028733;28;20186;-70
2023/08/24 10:51:13;;;;;;;10.00;6.65;;;;;;;;;;5032335;28;20292;-69
2023/08/24 10:53:40;;;;;;;9.23;7.55;;;;;;;;;;5026336;28;20209;-70
2023/08/24 10:56:16;;;;;;;10.82;7.45;;;;;;;;;;5029313;28;20592;-70
2023/08/24 10:58:42;;;;;;;9.55;6.95;;;;;;;;;;5025697;28;20276;-70
2023/08/24 11:01:15;;;;;;;14.13;6.82;;;;;;;;;;5030921;28;20193;-69
2023/08/24 11:03:42;;;;;;;7.70;5.70;;;;;;;;;;5025265;28;20669;-69
2023/08/24 11:06:21;;;;;;;8.60;6.00;;;;;;;;;;5030746;28;20185;-69
2023/08/24 11:08:47;;;;;;;13.13;6.25;;;;;;;;;;5026032;28;20182;-71
2023/08/24 11:11:19;;;;;;;9.98;5.68;;;;;;;;;;5028890;28;20186;-69
2023/08/24 11:14:22;;;;;;;7.63;4.85;;;;;;;;;;5030340;28;20265;-69
2023/08/24 11:16:48;;;;;;;7.47;3.90;;;;;;;;;;5017787;28;20170;-69
2023/08/24 11:19:15;;;;;;;8.30;4.63;;;;;;;;;;5021615;28;20214;-69
2023/08/24 11:21:43;;;;;;;9.43;5.00;;;;;;;;;;5025589;28;20193;-69
2023/08/24 11:24:16;;;;;;;9.52;4.30;;;;;;;;;;5013247;28;20655;-68
2023/08/24 11:26:46;;;;;;;7.55;4.22;;;;;;;;;;5028001;28;20216;-70
2023/08/24 11:29:12;;;;;;;7.35;4.80;;;;;;;;;;5037351;28;20185;-66
2023/08/24 11:31:38;;;;;;;8.70;4.75;;;;;;;;;;5046360;28;20200;-67
2023/08/24 11:34:05;;;;;;;6.25;4.22;;;;;;;;;;5023003;28;20198;-68
2023/08/24 11:36:49;;;;;;;6.57;3.88;;;;;;;;;;5025012;28;20197;-68
2023/08/24 11:39:17;;;;;;;8.38;4.13;;;;;;;;;;5020494;28;20217;-68
2023/08/24 11:41:44;;;;;;;6.47;3.90;;;;;;;;;;5021779;28;20238;-68
2023/08/24 11:44:10;;;;;;;5.82;4.20;;;;;;;;;;5019046;28;20226;-69
2023/08/24 11:46:37;;;;;;;6.40;3.65;;;;;;;;;;5025351;28;20633;-68
2023/08/24 11:49:06;;;;;;;7.28;3.70;;;;;;;;;;5017020;28;20562;-69
2023/08/24 11:51:34;;;;;;;5.82;3.80;;;;;;;;;;5030421;28;20267;-69
2023/08/24 11:53:59;;;;;;;8.23;3.58;;;;;;;;;;5029249;28;20568;-68
2023/08/24 11:56:25;;;;;;;6.25;3.35;;;;;;;;;;5031322;28;20197;-67
2023/08/24 11:58:50;;;;;;;7.80;3.88;;;;;;;;;;5028951;28;20206;-67
2023/08/24 12:01:17;;;;;;;6.03;3.13;;;;;;;;;;5030541;28;20197;-67
2023/08/24 12:03:42;;;;;;;5.22;2.90;;;;;;;;;;5026889;28;20232;-67
2023/08/24 12:06:16;;;;;;;3.92;2.90;;;;;;;;;;5017600;28;20194;-67
2023/08/24 12:08:43;;;;;;;7.43;3.72;;;;;;;;;;5027595;28;20193;-67
2023/08/24 12:11:17;;;;;;;4.13;2.80;;;;;;;;;;5026508;28;20208;-67
2023/08/24 12:13:50;;;;;;;5.03;3.28;;;;;;;;;;5028481;28;20187;-68
2023/08/24 12:16:17;;;;;;;6.28;3.22;;;;;;;;;;5029357;28;20197;-68
2023/08/24 12:18:59;;;;;;;6.07;3.20;;;;;;;;;;5034194;28;20247;-67
2023/08/24 12:21:26;;;;;;;6.05;3.53;;;;;;;;;;5035037;28;20245;-67
2023/08/24 12:24:05;;;;;;;6.63;3.30;;;;;;;;;;5030986;28;20186;-67
2023/08/24 12:26:36;;;;;;;8.18;2.85;;;;;;;;;;5042881;28;20598;-68
2023/08/24 12:29:08;;;;;;;10.65;3.50;;;;;;;;;;5030549;28;20240;-67
2023/08/24 12:31:35;;;;;;;8.02;3.33;;;;;;;;;;5045953;28;20193;-67
2023/08/24 12:34:10;;;;;;;5.43;3.20;;;;;;;;;;5031329;28;20217;-67
2023/08/24 12:36:38;;;;;;;6.35;3.38;;;;;;;;;;5032579;28;20661;-68
2023/08/24 12:39:05;;;;;;;9.93;3.20;;;;;;;;;;5029657;28;20202;-68
2023/08/24 12:41:31;;;;;;;5.15;3.08;;;;;;;;;;5027709;28;20735;-68
2023/08/24 12:43:56;;;;;;;4.80;3.20;;;;;;;;;;5029069;28;20316;-68
2023/08/24 12:46:23;;;;;;;7.65;3.40;;;;;;;;;;5025416;28;20277;-68
2023/08/24 12:48:50;;;;;;;4.40;3.17;;;;;;;;;;5030893;28;20174;-68
2023/08/24 12:51:15;;;;;;;5.35;2.90;;;;;;;;;;5033252;28;20193;-68
2023/08/24 12:53:43;;;;;;;5.53;3.17;;;;;;;;;;5030792;28;20202;-67
2023/08/24 12:56:08;;;;;;;6.50;3.10;;;;;;;;;;5023198;28;20264;-68
2023/08/24 12:58:33;;;;;;;6.85;3.45;;;;;;;;;;5033348;28;20626;-68
2023/08/24 13:00:59;;;;;;;5.75;3.40;;;;;;;;;;5028807;28;20736;-67
2023/08/24 13:03:25;;;;;;;6.85;3.50;;;;;;;;;;5032398;28;20472;-68
2023/08/24 13:05:50;;;;;;;4.35;3.08;;;;;;;;;;5021575;28;20650;-68
2023/08/24 13:08:15;;;;;;;5.88;3.08;;;;;;;;;;5030790;28;20186;-68
2023/08/24 13:10:42;;;;;;;6.63;3.22;;;;;;;;;;5033246;28;20198;-67
2023/08/24 13:13:07;;;;;;;5.85;3.28;;;;;;;;;;5031886;28;20185;-67
2023/08/24 13:15:33;;;;;;;7.97;3.60;;;;;;;;;;5030951;28;20687;-67
2023/08/24 13:17:58;;;;;;;5.57;3.13;;;;;;;;;;5031598;28;20209;-67
2023/08/24 13:20:25;;;;;;;5.38;3.20;;;;;;;;;;5028640;28;20218;-67
2023/08/24 13:22:51;;;;;;;5.72;2.75;;;;;;;;;;5034143;28;20202;-68
2023/08/24 13:25:18;;;;;;;7.28;3.22;;;;;;;;;;5027965;28;20194;-68
2023/08/24 13:27:43;;;;;;;6.00;3.05;;;;;;;;;;5032539;28;20265;-68
2023/08/24 13:30:09;;;;;;;6.90;3.00;;;;;;;;;;5029070;28;20270;-68
2023/08/24 13:32:35;;;;;;;9.02;3.35;;;;;;;;;;5041925;28;20201;-68
2023/08/24 13:35:01;;;;;;;6.82;3.15;;;;;;;;;;5031845;28;20267;-68
2023/08/24 13:37:26;;;;;;;6.07;3.05;;;;;;;;;;5022532;28;20190;-68
2023/08/24 13:39:52;;;;;;;4.97;3.00;;;;;;;;;;5032216;28;20610;-67
2023/08/24 13:42:17;;;;;;;7.10;3.17;;;;;;;;;;5032289;28;20212;-68
2023/08/24 13:44:43;;;;;;;4.38;3.20;;;;;;;;;;5032140;28;20222;-68
2023/08/24 13:47:09;;;;;;;7.65;3.72;;;;;;;;;;5030216;28;20190;-68
2023/08/24 13:49:34;;;;;;;3.75;3.17;;;;;;;;;;5029570;28;20581;-68
2023/08/24 13:52:00;;;;;;;6.93;3.25;;;;;;;;;;5027809;28;20669;-68
2023/08/24 13:54:26;;;;;;;4.82;3.30;;;;;;;;;;5032185;28;20194;-68
2023/08/24 13:56:53;;;;;;;6.47;3.55;;;;;;;;;;5031844;28;20245;-68
2023/08/24 13:59:19;;;;;;;5.57;3.72;;;;;;;;;;5033052;28;20315;-68
2023/08/24 14:01:45;;;;;;;6.90;3.90;;;;;;;;;;5032943;28;20190;-69
2023/08/24 14:04:10;;;;;;;5.45;3.97;;;;;;;;;;5027095;28;20251;-68
2023/08/24 14:06:36;;;;;;;7.97;4.10;;;;;;;;;;5031532;28;20193;-68
2023/08/24 14:09:06;;;;;;;11.98;4.45;;;;;;;;;;5033415;28;20244;-68
2023/08/24 14:11:32;;;;;;;6.50;3.88;;;;;;;;;;5020818;28;20189;-68
2023/08/24 14:13:59;;;;;;;7.88;3.88;;;;;;;;;;5032352;28;20710;-68
2023/08/24 14:16:24;;;;;;;5.28;3.60;;;;;;;;;;5031586;28;20190;-68
2023/08/24 14:18:51;;;;;;;6.05;3.20;;;;;;;;;;5038527;28;20224;-68
2023/08/24 14:21:20;;;;;;;8.25;4.07;;;;;;;;;;5033450;28;20250;-68
2023/08/24 14:23:45;;;;;;;7.63;3.90;;;;;;;;;;5032257;28;20251;-68
2023/08/24 14:26:11;;;;;;;7.10;4.30;;;;;;;;;;5032412;28;20197;-69